Gainesville Regional Airport Gainesville US
ICAO: KGNV
IATA: GNV
Category: Medium
Scheduled Services: Yes

Elevation: 152 ft
TransAlt. 18000 ft.

Airport Communications:
JACKSONVILLE APP/DEP:118.175
ATIS:127.15
CTAF:119.55
GND:121.7
RDO:122.1
RDO:122.2
TWR:119.55
UNICOM:122.95

KGNV Zoom In..

If you have problems with the map follow the link
https://www.worldairports.se/pages/airport.php?
ICAO=KGNV

Runways:

(A) RW 07 length 4158 ft width 100 ft
---- / hdg 65

(B) RW 11 length 7504 ft width 150 ft
---- / hdg 106

(C) RW 25 length 4158 ft width 100 ft
---- / hdg 245

(D) RW 29 length 7504 ft width 150 ft
ILS 111.30 / hdg 286

Location; KGNV
Day. 19 / Time. 19.53 Zulu
* Altimeter: 30.04
* Temperature: 25° c. 77°f.
* Wind from: 230° Speed 10 kn.
Dewpoint: 18° c.
Visibility: 10 Statute Miles.
Clouds: Few 3100 ft.
Clouds: Few 6500 ft.

KGNV 191953Z 23010KT 10SM FEW031 FEW065 25/18 A3004 RMK AO2 SLP169 T02500178


Wind From 230°
Speed 10 kn.

 
 
jpsmedia worldairports.se 2020   terms of use